sensor_id;sensor_type;location;lat;lon;timestamp;temperature;humidity
44271;DHT22;29963;44.594;11.368;2023-08-21T00:01:16;28.30;99.90
44271;DHT22;29963;44.594;11.368;2023-08-21T00:03:42;28.30;99.90
44271;DHT22;29963;44.594;11.368;2023-08-21T00:06:08;28.20;99.90
44271;DHT22;29963;44.594;11.368;2023-08-21T00:08:33;28.20;99.90
44271;DHT22;29963;44.594;11.368;2023-08-21T00:10:59;28.20;99.90
44271;DHT22;29963;44.594;11.368;2023-08-21T00:13:24;28.10;99.90
44271;DHT22;29963;44.594;11.368;2023-08-21T00:15:50;28.10;99.90
44271;DHT22;29963;44.594;11.368;2023-08-21T00:18:16;28.10;99.90
44271;DHT22;29963;44.594;11.368;2023-08-21T00:20:41;28.10;99.90
44271;DHT22;29963;44.594;11.368;2023-08-21T00:23:08;28.00;99.90
44271;DHT22;29963;44.594;11.368;2023-08-21T00:25:34;28.10;99.90
44271;DHT22;29963;44.594;11.368;2023-08-21T00:28:00;28.10;99.90
44271;DHT22;29963;44.594;11.368;2023-08-21T00:30:26;28.10;99.90
44271;DHT22;29963;44.594;11.368;2023-08-21T00:32:51;28.10;99.90
44271;DHT22;29963;44.594;11.368;2023-08-21T00:35:17;28.20;99.90
44271;DHT22;29963;44.594;11.368;2023-08-21T00:37:43;28.10;99.90
44271;DHT22;29963;44.594;11.368;2023-08-21T00:40:09;28.10;99.90
44271;DHT22;29963;44.594;11.368;2023-08-21T00:42:34;28.00;99.90
44271;DHT22;29963;44.594;11.368;2023-08-21T00:45:00;28.00;99.90
44271;DHT22;29963;44.594;11.368;2023-08-21T00:47:26;28.00;99.90
44271;DHT22;29963;44.594;11.368;2023-08-21T00:49:52;27.90;99.90
44271;DHT22;29963;44.594;11.368;2023-08-21T00:52:17;27.90;99.90
44271;DHT22;29963;44.594;11.368;2023-08-21T00:54:43;28.00;99.90
44271;DHT22;29963;44.594;11.368;2023-08-21T00:57:10;27.90;99.90
44271;DHT22;29963;44.594;11.368;2023-08-21T00:59:37;27.90;99.90
44271;DHT22;29963;44.594;11.368;2023-08-21T01:02:02;27.80;99.90
44271;DHT22;29963;44.594;11.368;2023-08-21T01:04:28;27.80;99.90
44271;DHT22;29963;44.594;11.368;2023-08-21T01:06:54;27.80;99.90
44271;DHT22;29963;44.594;11.368;2023-08-21T01:14:54;27.70;99.90
44271;DHT22;29963;44.594;11.368;2023-08-21T01:17:21;27.70;99.90
44271;DHT22;29963;44.594;11.368;2023-08-21T01:19:50;27.70;99.90
44271;DHT22;29963;44.594;11.368;2023-08-21T01:22:16;27.60;99.90
44271;DHT22;29963;44.594;11.368;2023-08-21T01:24:42;27.70;99.90
44271;DHT22;29963;44.594;11.368;2023-08-21T01:27:08;27.60;99.90
44271;DHT22;29963;44.594;11.368;2023-08-21T01:29:35;27.50;99.90
44271;DHT22;29963;44.594;11.368;2023-08-21T01:32:12;27.40;99.90
44271;DHT22;29963;44.594;11.368;2023-08-21T01:34:40;27.50;99.90
44271;DHT22;29963;44.594;11.368;2023-08-21T01:37:08;27.50;99.90
44271;DHT22;29963;44.594;11.368;2023-08-21T01:39:34;27.50;99.90
44271;DHT22;29963;44.594;11.368;2023-08-21T01:41:59;27.50;99.90
44271;DHT22;29963;44.594;11.368;2023-08-21T01:44:25;27.40;99.90
44271;DHT22;29963;44.594;11.368;2023-08-21T01:46:55;27.40;99.90
44271;DHT22;29963;44.594;11.368;2023-08-21T01:49:20;27.40;99.90
44271;DHT22;29963;44.594;11.368;2023-08-21T01:51:46;27.40;99.90
44271;DHT22;29963;44.594;11.368;2023-08-21T01:54:12;27.30;99.90
44271;DHT22;29963;44.594;11.368;2023-08-21T01:56:38;27.20;99.90
44271;DHT22;29963;44.594;11.368;2023-08-21T01:59:04;27.30;99.90
44271;DHT22;29963;44.594;11.368;2023-08-21T02:01:30;27.30;99.90
44271;DHT22;29963;44.594;11.368;2023-08-21T02:03:55;27.30;99.90
44271;DHT22;29963;44.594;11.368;2023-08-21T02:06:21;27.20;99.90
44271;DHT22;29963;44.594;11.368;2023-08-21T02:08:47;27.20;99.90
44271;DHT22;29963;44.594;11.368;2023-08-21T02:11:12;27.20;99.90
44271;DHT22;29963;44.594;11.368;2023-08-21T02:13:38;27.10;99.90
44271;DHT22;29963;44.594;11.368;2023-08-21T02:16:03;27.10;99.90
44271;DHT22;29963;44.594;11.368;2023-08-21T02:18:29;27.10;99.90
44271;DHT22;29963;44.594;11.368;2023-08-21T02:20:55;27.10;99.90
44271;DHT22;29963;44.594;11.368;2023-08-21T02:23:20;27.00;99.90
44271;DHT22;29963;44.594;11.368;2023-08-21T02:25:46;27.00;99.90
44271;DHT22;29963;44.594;11.368;2023-08-21T02:28:12;26.90;99.90
44271;DHT22;29963;44.594;11.368;2023-08-21T02:30:41;26.90;99.90
44271;DHT22;29963;44.594;11.368;2023-08-21T02:33:07;27.00;99.90
44271;DHT22;29963;44.594;11.368;2023-08-21T02:35:33;26.90;99.90
44271;DHT22;29963;44.594;11.368;2023-08-21T02:37:58;26.90;99.90
44271;DHT22;29963;44.594;11.368;2023-08-21T02:40:24;26.80;99.90
44271;DHT22;29963;44.594;11.368;2023-08-21T02:42:50;26.80;99.90
44271;DHT22;29963;44.594;11.368;2023-08-21T02:45:15;26.80;99.90
44271;DHT22;29963;44.594;11.368;2023-08-21T02:47:41;26.70;99.90
44271;DHT22;29963;44.594;11.368;2023-08-21T02:50:09;26.70;99.90
44271;DHT22;29963;44.594;11.368;2023-08-21T02:52:35;26.80;99.90
44271;DHT22;29963;44.594;11.368;2023-08-21T02:55:02;26.80;99.90
44271;DHT22;29963;44.594;11.368;2023-08-21T02:57:28;26.80;99.90
44271;DHT22;29963;44.594;11.368;2023-08-21T02:59:54;26.70;99.90
44271;DHT22;29963;44.594;11.368;2023-08-21T03:02:21;26.80;99.90
44271;DHT22;29963;44.594;11.368;2023-08-21T03:04:47;26.80;99.90
44271;DHT22;29963;44.594;11.368;2023-08-21T03:07:12;26.70;99.90
44271;DHT22;29963;44.594;11.368;2023-08-21T03:09:39;26.70;99.90
44271;DHT22;29963;44.594;11.368;2023-08-21T03:12:05;26.70;99.90
44271;DHT22;29963;44.594;11.368;2023-08-21T03:14:31;26.70;99.90
44271;DHT22;29963;44.594;11.368;2023-08-21T03:16:56;26.70;99.90
44271;DHT22;29963;44.594;11.368;2023-08-21T03:19:22;26.70;99.90
44271;DHT22;29963;44.594;11.368;2023-08-21T03:21:48;26.60;99.90
44271;DHT22;29963;44.594;11.368;2023-08-21T03:24:14;26.70;99.90
44271;DHT22;29963;44.594;11.368;2023-08-21T03:26:40;26.70;99.90
44271;DHT22;29963;44.594;11.368;2023-08-21T03:29:05;26.60;99.90
44271;DHT22;29963;44.594;11.368;2023-08-21T03:31:31;26.50;99.90
44271;DHT22;29963;44.594;11.368;2023-08-21T03:33:56;26.50;99.90
44271;DHT22;29963;44.594;11.368;2023-08-21T03:36:23;26.50;99.90
44271;DHT22;29963;44.594;11.368;2023-08-21T03:39:01;26.50;99.90
44271;DHT22;29963;44.594;11.368;2023-08-21T03:41:27;26.50;99.90
44271;DHT22;29963;44.594;11.368;2023-08-21T03:43:53;26.50;99.90
44271;DHT22;29963;44.594;11.368;2023-08-21T03:46:19;26.50;99.90
44271;DHT22;29963;44.594;11.368;2023-08-21T03:48:45;26.40;99.90
44271;DHT22;29963;44.594;11.368;2023-08-21T03:51:10;26.40;99.90
44271;DHT22;29963;44.594;11.368;2023-08-21T03:53:36;26.30;99.90
44271;DHT22;29963;44.594;11.368;2023-08-21T03:56:02;26.30;99.90
44271;DHT22;29963;44.594;11.368;2023-08-21T03:58:27;26.20;99.90
44271;DHT22;29963;44.594;11.368;2023-08-21T04:00:53;26.20;99.90
44271;DHT22;29963;44.594;11.368;2023-08-21T04:03:19;26.10;99.90
44271;DHT22;29963;44.594;11.368;2023-08-21T04:05:45;26.10;99.90
44271;DHT22;29963;44.594;11.368;2023-08-21T04:08:10;26.10;99.90
44271;DHT22;29963;44.594;11.368;2023-08-21T04:10:36;26.20;99.90
44271;DHT22;29963;44.594;11.368;2023-08-21T04:13:02;26.10;99.90
44271;DHT22;29963;44.594;11.368;2023-08-21T04:15:27;26.10;99.90
44271;DHT22;29963;44.594;11.368;2023-08-21T04:17:53;26.10;99.90
44271;DHT22;29963;44.594;11.368;2023-08-21T04:20:20;26.10;99.90
44271;DHT22;29963;44.594;11.368;2023-08-21T04:22:47;26.10;99.90
44271;DHT22;29963;44.594;11.368;2023-08-21T04:25:13;26.00;99.90
44271;DHT22;29963;44.594;11.368;2023-08-21T04:27:39;26.00;99.90
44271;DHT22;29963;44.594;11.368;2023-08-21T04:30:05;25.90;99.90
44271;DHT22;29963;44.594;11.368;2023-08-21T04:32:31;26.00;99.90
44271;DHT22;29963;44.594;11.368;2023-08-21T04:34:56;25.90;99.90
44271;DHT22;29963;44.594;11.368;2023-08-21T04:37:23;25.90;99.90
44271;DHT22;29963;44.594;11.368;2023-08-21T04:39:52;25.90;99.90
44271;DHT22;29963;44.594;11.368;2023-08-21T04:42:18;25.90;99.90
44271;DHT22;29963;44.594;11.368;2023-08-21T04:44:44;25.80;99.90
44271;DHT22;29963;44.594;11.368;2023-08-21T04:47:25;25.80;99.90
44271;DHT22;29963;44.594;11.368;2023-08-21T04:49:52;25.70;99.90
44271;DHT22;29963;44.594;11.368;2023-08-21T04:52:18;25.70;99.90
44271;DHT22;29963;44.594;11.368;2023-08-21T04:54:44;25.70;99.90
44271;DHT22;29963;44.594;11.368;2023-08-21T04:57:10;25.70;99.90
44271;DHT22;29963;44.594;11.368;2023-08-21T04:59:36;25.70;99.90
44271;DHT22;29963;44.594;11.368;2023-08-21T05:02:02;25.70;99.90
44271;DHT22;29963;44.594;11.368;2023-08-21T05:04:27;25.70;99.90
44271;DHT22;29963;44.594;11.368;2023-08-21T05:06:53;25.70;99.90
44271;DHT22;29963;44.594;11.368;2023-08-21T05:09:19;25.70;99.90
44271;DHT22;29963;44.594;11.368;2023-08-21T05:11:44;25.80;99.90
44271;DHT22;29963;44.594;11.368;2023-08-21T05:14:10;25.80;99.90
44271;DHT22;29963;44.594;11.368;2023-08-21T05:16:35;25.70;99.90
44271;DHT22;29963;44.594;11.368;2023-08-21T05:19:01;25.80;99.90
44271;DHT22;29963;44.594;11.368;2023-08-21T05:21:27;25.80;99.90
44271;DHT22;29963;44.594;11.368;2023-08-21T05:23:53;25.80;99.90
44271;DHT22;29963;44.594;11.368;2023-08-21T05:26:19;25.80;99.90
44271;DHT22;29963;44.594;11.368;2023-08-21T05:28:45;25.70;99.90
44271;DHT22;29963;44.594;11.368;2023-08-21T05:31:10;25.70;99.90
44271;DHT22;29963;44.594;11.368;2023-08-21T05:33:36;25.70;99.90
44271;DHT22;29963;44.594;11.368;2023-08-21T05:36:02;25.80;99.90
44271;DHT22;29963;44.594;11.368;2023-08-21T05:38:27;25.80;99.90
44271;DHT22;29963;44.594;11.368;2023-08-21T05:40:53;25.80;99.90
44271;DHT22;29963;44.594;11.368;2023-08-21T05:43:19;25.80;99.90
44271;DHT22;29963;44.594;11.368;2023-08-21T05:45:45;25.90;99.90
44271;DHT22;29963;44.594;11.368;2023-08-21T05:48:10;25.90;99.90
44271;DHT22;29963;44.594;11.368;2023-08-21T05:50:36;26.00;99.90
44271;DHT22;29963;44.594;11.368;2023-08-21T05:53:05;26.00;99.90
44271;DHT22;29963;44.594;11.368;2023-08-21T05:55:31;26.00;99.90
44271;DHT22;29963;44.594;11.368;2023-08-21T05:57:56;26.00;99.90
44271;DHT22;29963;44.594;11.368;2023-08-21T06:00:22;26.10;99.90
44271;DHT22;29963;44.594;11.368;2023-08-21T06:02:48;26.10;99.90
44271;DHT22;29963;44.594;11.368;2023-08-21T06:05:13;26.10;99.90
44271;DHT22;29963;44.594;11.368;2023-08-21T06:07:39;26.10;99.90
44271;DHT22;29963;44.594;11.368;2023-08-21T06:10:09;26.10;99.90
44271;DHT22;29963;44.594;11.368;2023-08-21T06:12:40;26.00;99.90
44271;DHT22;29963;44.594;11.368;2023-08-21T06:15:07;26.00;99.90
44271;DHT22;29963;44.594;11.368;2023-08-21T06:17:35;26.00;99.90
44271;DHT22;29963;44.594;11.368;2023-08-21T06:20:01;26.00;99.90
44271;DHT22;29963;44.594;11.368;2023-08-21T06:22:28;26.00;99.90
44271;DHT22;29963;44.594;11.368;2023-08-21T06:24:54;26.10;99.90
44271;DHT22;29963;44.594;11.368;2023-08-21T06:27:19;26.20;99.90
44271;DHT22;29963;44.594;11.368;2023-08-21T06:29:45;26.20;99.90
44271;DHT22;29963;44.594;11.368;2023-08-21T06:32:10;26.10;99.90
44271;DHT22;29963;44.594;11.368;2023-08-21T06:34:36;26.10;99.90
44271;DHT22;29963;44.594;11.368;2023-08-21T06:37:02;26.10;99.90
44271;DHT22;29963;44.594;11.368;2023-08-21T06:39:28;26.20;99.90
44271;DHT22;29963;44.594;11.368;2023-08-21T06:41:53;26.20;99.90
44271;DHT22;29963;44.594;11.368;2023-08-21T06:44:19;26.20;99.90
44271;DHT22;29963;44.594;11.368;2023-08-21T06:46:45;26.30;99.90
44271;DHT22;29963;44.594;11.368;2023-08-21T06:49:10;26.40;99.90
44271;DHT22;29963;44.594;11.368;2023-08-21T06:51:36;26.50;99.90
44271;DHT22;29963;44.594;11.368;2023-08-21T06:54:02;26.50;99.90
44271;DHT22;29963;44.594;11.368;2023-08-21T06:56:28;26.60;99.90
44271;DHT22;29963;44.594;11.368;2023-08-21T06:58:53;26.60;99.90
44271;DHT22;29963;44.594;11.368;2023-08-21T07:01:20;26.70;99.90
44271;DHT22;29963;44.594;11.368;2023-08-21T07:03:46;26.70;99.90
44271;DHT22;29963;44.594;11.368;2023-08-21T07:06:12;26.80;99.90
44271;DHT22;29963;44.594;11.368;2023-08-21T07:08:38;26.90;99.90
44271;DHT22;29963;44.594;11.368;2023-08-21T07:11:06;26.90;99.90
44271;DHT22;29963;44.594;11.368;2023-08-21T07:13:36;27.00;99.90
44271;DHT22;29963;44.594;11.368;2023-08-21T07:16:01;27.10;99.90
44271;DHT22;29963;44.594;11.368;2023-08-21T07:18:29;27.10;99.90
44271;DHT22;29963;44.594;11.368;2023-08-21T07:20:55;27.10;99.90
44271;DHT22;29963;44.594;11.368;2023-08-21T07:23:20;27.20;99.90
44271;DHT22;29963;44.594;11.368;2023-08-21T07:25:46;27.20;99.90
44271;DHT22;29963;44.594;11.368;2023-08-21T07:28:12;27.30;99.90
44271;DHT22;29963;44.594;11.368;2023-08-21T07:30:38;27.40;99.90
44271;DHT22;29963;44.594;11.368;2023-08-21T07:33:04;27.40;99.90
44271;DHT22;29963;44.594;11.368;2023-08-21T07:35:30;27.50;99.90
44271;DHT22;29963;44.594;11.368;2023-08-21T07:37:56;27.50;99.90
44271;DHT22;29963;44.594;11.368;2023-08-21T07:40:21;27.60;99.90
44271;DHT22;29963;44.594;11.368;2023-08-21T07:42:47;27.70;99.90
44271;DHT22;29963;44.594;11.368;2023-08-21T07:45:13;27.80;99.90
44271;DHT22;29963;44.594;11.368;2023-08-21T07:47:38;27.80;99.90
44271;DHT22;29963;44.594;11.368;2023-08-21T07:50:05;27.90;99.90
44271;DHT22;29963;44.594;11.368;2023-08-21T07:52:32;28.00;99.90
44271;DHT22;29963;44.594;11.368;2023-08-21T07:54:58;28.00;99.90
44271;DHT22;29963;44.594;11.368;2023-08-21T07:57:26;28.10;99.90
44271;DHT22;29963;44.594;11.368;2023-08-21T07:59:52;28.10;99.90
44271;DHT22;29963;44.594;11.368;2023-08-21T08:02:17;28.20;99.90
44271;DHT22;29963;44.594;11.368;2023-08-21T08:04:43;28.20;99.90
44271;DHT22;29963;44.594;11.368;2023-08-21T08:07:09;28.30;99.90
44271;DHT22;29963;44.594;11.368;2023-08-21T08:09:34;28.30;99.90
44271;DHT22;29963;44.594;11.368;2023-08-21T08:12:01;28.40;99.90
44271;DHT22;29963;44.594;11.368;2023-08-21T08:14:27;28.50;99.90
44271;DHT22;29963;44.594;11.368;2023-08-21T08:16:52;28.60;99.90
44271;DHT22;29963;44.594;11.368;2023-08-21T08:19:18;28.60;99.90
44271;DHT22;29963;44.594;11.368;2023-08-21T08:21:43;28.70;99.90
44271;DHT22;29963;44.594;11.368;2023-08-21T08:24:09;28.70;99.90
44271;DHT22;29963;44.594;11.368;2023-08-21T08:26:35;28.80;99.90
44271;DHT22;29963;44.594;11.368;2023-08-21T08:29:00;28.80;99.90
44271;DHT22;29963;44.594;11.368;2023-08-21T08:31:26;28.90;99.90
44271;DHT22;29963;44.594;11.368;2023-08-21T08:33:53;28.90;99.90
44271;DHT22;29963;44.594;11.368;2023-08-21T08:36:19;29.00;99.90
44271;DHT22;29963;44.594;11.368;2023-08-21T08:38:45;29.00;99.90
44271;DHT22;29963;44.594;11.368;2023-08-21T08:41:16;29.10;99.90
44271;DHT22;29963;44.594;11.368;2023-08-21T08:43:44;29.10;99.90
44271;DHT22;29963;44.594;11.368;2023-08-21T08:46:11;29.20;99.90
44271;DHT22;29963;44.594;11.368;2023-08-21T08:48:37;29.20;99.90
44271;DHT22;29963;44.594;11.368;2023-08-21T08:51:04;29.30;99.90
44271;DHT22;29963;44.594;11.368;2023-08-21T08:53:30;29.30;99.90
44271;DHT22;29963;44.594;11.368;2023-08-21T08:55:57;29.50;99.90
44271;DHT22;29963;44.594;11.368;2023-08-21T08:58:23;29.50;99.90
44271;DHT22;29963;44.594;11.368;2023-08-21T09:00:49;29.50;99.90
44271;DHT22;29963;44.594;11.368;2023-08-21T09:03:15;29.60;99.90
44271;DHT22;29963;44.594;11.368;2023-08-21T09:05:41;29.70;99.90
44271;DHT22;29963;44.594;11.368;2023-08-21T09:10:32;29.80;99.90
44271;DHT22;29963;44.594;11.368;2023-08-21T09:12:58;29.90;99.90
44271;DHT22;29963;44.594;11.368;2023-08-21T09:15:29;29.90;99.90
44271;DHT22;29963;44.594;11.368;2023-08-21T09:17:55;30.00;99.90
44271;DHT22;29963;44.594;11.368;2023-08-21T09:20:21;30.00;99.90
44271;DHT22;29963;44.594;11.368;2023-08-21T09:22:54;30.10;99.90
44271;DHT22;29963;44.594;11.368;2023-08-21T09:25:23;30.10;99.90
44271;DHT22;29963;44.594;11.368;2023-08-21T09:27:51;30.20;99.90
44271;DHT22;29963;44.594;11.368;2023-08-21T09:30:17;30.20;99.90
44271;DHT22;29963;44.594;11.368;2023-08-21T09:32:59;30.20;99.90
44271;DHT22;29963;44.594;11.368;2023-08-21T09:35:32;30.30;99.90
44271;DHT22;29963;44.594;11.368;2023-08-21T09:37:59;30.50;99.90
44271;DHT22;29963;44.594;11.368;2023-08-21T09:40:24;30.30;99.90
44271;DHT22;29963;44.594;11.368;2023-08-21T09:42:57;30.40;99.90
44271;DHT22;29963;44.594;11.368;2023-08-21T09:45:23;30.50;99.90
44271;DHT22;29963;44.594;11.368;2023-08-21T09:47:50;30.50;99.90
44271;DHT22;29963;44.594;11.368;2023-08-21T09:50:18;30.60;99.90
44271;DHT22;29963;44.594;11.368;2023-08-21T09:52:45;30.60;99.90
44271;DHT22;29963;44.594;11.368;2023-08-21T09:55:13;30.60;99.90
44271;DHT22;29963;44.594;11.368;2023-08-21T09:57:39;30.70;99.90
44271;DHT22;29963;44.594;11.368;2023-08-21T10:00:07;30.70;99.90
44271;DHT22;29963;44.594;11.368;2023-08-21T10:02:52;30.70;99.90
44271;DHT22;29963;44.594;11.368;2023-08-21T10:05:19;30.70;99.90
44271;DHT22;29963;44.594;11.368;2023-08-21T10:07:49;30.70;99.90
44271;DHT22;29963;44.594;11.368;2023-08-21T10:10:16;30.70;99.90
44271;DHT22;29963;44.594;11.368;2023-08-21T10:12:42;30.80;99.90
44271;DHT22;29963;44.594;11.368;2023-08-21T10:15:08;30.80;99.50
44271;DHT22;29963;44.594;11.368;2023-08-21T10:17:35;30.90;99.70
44271;DHT22;29963;44.594;11.368;2023-08-21T10:20:06;30.90;98.60
44271;DHT22;29963;44.594;11.368;2023-08-21T10:25:15;31.00;98.30
44271;DHT22;29963;44.594;11.368;2023-08-21T10:27:42;31.10;98.50
44271;DHT22;29963;44.594;11.368;2023-08-21T10:30:27;31.20;98.10
44271;DHT22;29963;44.594;11.368;2023-08-21T10:32:57;31.30;97.20
44271;DHT22;29963;44.594;11.368;2023-08-21T10:35:29;31.30;96.50
44271;DHT22;29963;44.594;11.368;2023-08-21T10:38:15;31.70;95.70
44271;DHT22;29963;44.594;11.368;2023-08-21T10:41:05;31.50;95.80
44271;DHT22;29963;44.594;11.368;2023-08-21T10:43:43;31.60;95.50
44271;DHT22;29963;44.594;11.368;2023-08-21T10:46:09;31.70;95.70
44271;DHT22;29963;44.594;11.368;2023-08-21T10:48:38;31.80;96.00
44271;DHT22;29963;44.594;11.368;2023-08-21T10:51:06;31.90;96.10
44271;DHT22;29963;44.594;11.368;2023-08-21T10:53:33;31.90;96.40
44271;DHT22;29963;44.594;11.368;2023-08-21T10:56:04;31.90;96.60
44271;DHT22;29963;44.594;11.368;2023-08-21T10:58:42;31.90;97.10
44271;DHT22;29963;44.594;11.368;2023-08-21T11:01:09;31.90;96.90
44271;DHT22;29963;44.594;11.368;2023-08-21T11:03:38;32.00;96.80
44271;DHT22;29963;44.594;11.368;2023-08-21T11:06:07;32.00;96.50
44271;DHT22;29963;44.594;11.368;2023-08-21T11:08:34;32.10;96.20
44271;DHT22;29963;44.594;11.368;2023-08-21T11:11:05;32.20;95.80
44271;DHT22;29963;44.594;11.368;2023-08-21T11:13:31;32.10;95.40
44271;DHT22;29963;44.594;11.368;2023-08-21T11:16:04;32.20;94.90
44271;DHT22;29963;44.594;11.368;2023-08-21T11:18:34;32.20;94.40
44271;DHT22;29963;44.594;11.368;2023-08-21T11:21:11;32.30;94.60
44271;DHT22;29963;44.594;11.368;2023-08-21T11:23:41;32.20;94.20
44271;DHT22;29963;44.594;11.368;2023-08-21T11:26:10;32.20;93.90
44271;DHT22;29963;44.594;11.368;2023-08-21T11:28:37;32.20;93.60
44271;DHT22;29963;44.594;11.368;2023-08-21T11:31:04;32.30;93.30
44271;DHT22;29963;44.594;11.368;2023-08-21T11:33:31;32.50;93.20
44271;DHT22;29963;44.594;11.368;2023-08-21T11:35:57;32.50;93.20
44271;DHT22;29963;44.594;11.368;2023-08-21T11:38:25;32.50;93.70
44271;DHT22;29963;44.594;11.368;2023-08-21T11:40:59;32.50;93.40
44271;DHT22;29963;44.594;11.368;2023-08-21T11:43:38;32.60;93.30
44271;DHT22;29963;44.594;11.368;2023-08-21T11:46:05;32.60;93.00
44271;DHT22;29963;44.594;11.368;2023-08-21T11:48:31;32.60;92.10
44271;DHT22;29963;44.594;11.368;2023-08-21T11:50:57;32.60;92.10
44271;DHT22;29963;44.594;11.368;2023-08-21T11:53:40;32.60;92.50
44271;DHT22;29963;44.594;11.368;2023-08-21T11:56:13;32.30;92.80
44271;DHT22;29963;44.594;11.368;2023-08-21T11:58:46;32.70;92.80
44271;DHT22;29963;44.594;11.368;2023-08-21T12:01:18;32.80;92.60
44271;DHT22;29963;44.594;11.368;2023-08-21T12:03:44;32.70;91.90
44271;DHT22;29963;44.594;11.368;2023-08-21T12:06:11;32.70;91.70
44271;DHT22;29963;44.594;11.368;2023-08-21T12:08:38;32.60;91.70
44271;DHT22;29963;44.594;11.368;2023-08-21T12:11:04;32.70;92.60
44271;DHT22;29963;44.594;11.368;2023-08-21T12:13:30;32.70;93.00
44271;DHT22;29963;44.594;11.368;2023-08-21T12:15:56;32.70;92.70
44271;DHT22;29963;44.594;11.368;2023-08-21T12:18:23;32.80;92.70
44271;DHT22;29963;44.594;11.368;2023-08-21T12:20:49;32.80;93.00
44271;DHT22;29963;44.594;11.368;2023-08-21T12:23:14;32.90;93.20
44271;DHT22;29963;44.594;11.368;2023-08-21T12:25:40;33.00;93.10
44271;DHT22;29963;44.594;11.368;2023-08-21T12:28:07;33.00;93.00
44271;DHT22;29963;44.594;11.368;2023-08-21T12:30:34;33.10;93.10
44271;DHT22;29963;44.594;11.368;2023-08-21T12:32:59;33.20;93.00
44271;DHT22;29963;44.594;11.368;2023-08-21T12:35:25;33.30;93.10
44271;DHT22;29963;44.594;11.368;2023-08-21T12:37:53;33.40;92.50
44271;DHT22;29963;44.594;11.368;2023-08-21T12:40:19;33.40;92.70
44271;DHT22;29963;44.594;11.368;2023-08-21T12:42:45;33.50;93.10
44271;DHT22;29963;44.594;11.368;2023-08-21T12:45:10;33.50;93.30
44271;DHT22;29963;44.594;11.368;2023-08-21T12:47:36;33.60;92.70
44271;DHT22;29963;44.594;11.368;2023-08-21T12:50:02;33.70;93.00
44271;DHT22;29963;44.594;11.368;2023-08-21T12:52:28;33.80;92.60
44271;DHT22;29963;44.594;11.368;2023-08-21T12:54:54;33.80;92.10
44271;DHT22;29963;44.594;11.368;2023-08-21T12:57:19;34.00;92.10
44271;DHT22;29963;44.594;11.368;2023-08-21T12:59:45;34.00;92.00
44271;DHT22;29963;44.594;11.368;2023-08-21T13:02:11;34.00;92.00
44271;DHT22;29963;44.594;11.368;2023-08-21T13:04:36;34.00;92.00
44271;DHT22;29963;44.594;11.368;2023-08-21T13:07:02;34.00;92.20
44271;DHT22;29963;44.594;11.368;2023-08-21T13:09:28;34.10;92.20
44271;DHT22;29963;44.594;11.368;2023-08-21T13:11:54;34.20;91.90
44271;DHT22;29963;44.594;11.368;2023-08-21T13:14:20;34.20;92.10
44271;DHT22;29963;44.594;11.368;2023-08-21T13:16:46;34.20;91.90
44271;DHT22;29963;44.594;11.368;2023-08-21T13:19:11;34.30;91.90
44271;DHT22;29963;44.594;11.368;2023-08-21T13:21:37;34.30;91.70
44271;DHT22;29963;44.594;11.368;2023-08-21T13:24:03;34.40;91.10
44271;DHT22;29963;44.594;11.368;2023-08-21T13:26:30;34.50;91.70
44271;DHT22;29963;44.594;11.368;2023-08-21T13:28:56;34.60;91.60
44271;DHT22;29963;44.594;11.368;2023-08-21T13:31:22;34.70;91.10
44271;DHT22;29963;44.594;11.368;2023-08-21T13:33:48;34.70;91.30
44271;DHT22;29963;44.594;11.368;2023-08-21T13:36:15;34.80;90.50
44271;DHT22;29963;44.594;11.368;2023-08-21T13:38:42;34.80;90.20
44271;DHT22;29963;44.594;11.368;2023-08-21T13:41:07;34.80;90.20
44271;DHT22;29963;44.594;11.368;2023-08-21T13:43:34;34.80;90.20
44271;DHT22;29963;44.594;11.368;2023-08-21T13:46:03;34.90;89.80
44271;DHT22;29963;44.594;11.368;2023-08-21T13:48:32;35.00;89.80
44271;DHT22;29963;44.594;11.368;2023-08-21T13:50:57;35.00;89.70
44271;DHT22;29963;44.594;11.368;2023-08-21T13:53:23;35.10;89.10
44271;DHT22;29963;44.594;11.368;2023-08-21T13:55:52;35.20;89.20
44271;DHT22;29963;44.594;11.368;2023-08-21T13:58:17;35.20;89.20
44271;DHT22;29963;44.594;11.368;2023-08-21T14:00:43;35.20;88.40
44271;DHT22;29963;44.594;11.368;2023-08-21T14:03:12;35.30;88.20
44271;DHT22;29963;44.594;11.368;2023-08-21T14:05:37;35.40;87.20
44271;DHT22;29963;44.594;11.368;2023-08-21T14:08:03;35.40;85.70
44271;DHT22;29963;44.594;11.368;2023-08-21T14:10:29;35.50;85.00
44271;DHT22;29963;44.594;11.368;2023-08-21T14:12:56;35.60;85.00
44271;DHT22;29963;44.594;11.368;2023-08-21T14:15:22;35.60;84.00
44271;DHT22;29963;44.594;11.368;2023-08-21T14:17:48;35.70;84.20
44271;DHT22;29963;44.594;11.368;2023-08-21T14:20:15;35.80;83.30
44271;DHT22;29963;44.594;11.368;2023-08-21T14:22:40;35.90;82.70
44271;DHT22;29963;44.594;11.368;2023-08-21T14:25:06;36.00;84.70
44271;DHT22;29963;44.594;11.368;2023-08-21T14:27:32;36.00;83.00
44271;DHT22;29963;44.594;11.368;2023-08-21T14:29:58;36.10;82.70
44271;DHT22;29963;44.594;11.368;2023-08-21T14:32:24;36.10;82.10
44271;DHT22;29963;44.594;11.368;2023-08-21T14:34:50;36.20;82.30
44271;DHT22;29963;44.594;11.368;2023-08-21T14:37:18;36.30;81.10
44271;DHT22;29963;44.594;11.368;2023-08-21T14:39:44;36.40;80.50
44271;DHT22;29963;44.594;11.368;2023-08-21T14:42:09;36.40;80.00
44271;DHT22;29963;44.594;11.368;2023-08-21T14:44:35;36.50;80.30
44271;DHT22;29963;44.594;11.368;2023-08-21T14:47:01;36.50;79.90
44271;DHT22;29963;44.594;11.368;2023-08-21T14:49:26;36.60;79.50
44271;DHT22;29963;44.594;11.368;2023-08-21T14:51:53;36.60;80.80
44271;DHT22;29963;44.594;11.368;2023-08-21T14:54:19;36.60;80.50
44271;DHT22;29963;44.594;11.368;2023-08-21T14:56:44;36.70;79.60
44271;DHT22;29963;44.594;11.368;2023-08-21T14:59:10;36.70;78.40
44271;DHT22;29963;44.594;11.368;2023-08-21T15:01:37;36.80;79.10
44271;DHT22;29963;44.594;11.368;2023-08-21T15:04:04;36.80;78.60
44271;DHT22;29963;44.594;11.368;2023-08-21T15:06:30;36.90;77.30
44271;DHT22;29963;44.594;11.368;2023-08-21T15:08:55;36.90;76.70
44271;DHT22;29963;44.594;11.368;2023-08-21T15:11:21;36.90;76.30
44271;DHT22;29963;44.594;11.368;2023-08-21T15:13:46;37.00;76.20
44271;DHT22;29963;44.594;11.368;2023-08-21T15:16:12;37.10;76.30
44271;DHT22;29963;44.594;11.368;2023-08-21T15:18:38;37.10;75.10
44271;DHT22;29963;44.594;11.368;2023-08-21T15:21:04;37.10;74.50
44271;DHT22;29963;44.594;11.368;2023-08-21T15:23:29;37.10;74.00